createdAt,value
2023-05-19T00:01:25.990Z,74.60
2023-05-19T00:03:54.518Z,76.40
2023-05-19T00:06:27.060Z,75.20
2023-05-19T00:09:02.409Z,74.20
2023-05-19T00:11:30.408Z,74.70
2023-05-19T00:13:59.014Z,74.40
2023-05-19T00:16:28.375Z,74.50
2023-05-19T00:18:57.416Z,75.30
2023-05-19T00:21:25.812Z,74.70
2023-05-19T00:23:53.395Z,75.00
2023-05-19T00:26:23.028Z,75.00
2023-05-19T00:28:50.898Z,74.60
2023-05-19T00:31:18.668Z,75.10
2023-05-19T00:33:46.720Z,74.80
2023-05-19T00:36:15.182Z,74.20
2023-05-19T00:38:43.859Z,74.30
2023-05-19T00:41:12.906Z,74.50
2023-05-19T00:43:40.645Z,73.90
2023-05-19T00:46:08.355Z,74.10
2023-05-19T00:48:36.007Z,74.40
2023-05-19T00:51:05.556Z,73.70
2023-05-19T00:53:33.975Z,74.50
2023-05-19T00:56:02.462Z,73.90
2023-05-19T00:58:33.997Z,74.60
2023-05-19T01:01:07.245Z,74.00
2023-05-19T01:03:36.360Z,74.40
2023-05-19T01:06:08.559Z,74.20
2023-05-19T01:08:39.493Z,74.20
2023-05-19T01:11:08.404Z,73.20
2023-05-19T01:13:36.904Z,72.90
2023-05-19T01:16:13.539Z,73.10
2023-05-19T01:18:47.934Z,72.90
2023-05-19T01:21:18.620Z,72.30
2023-05-19T01:23:54.958Z,72.40
2023-05-19T01:26:28.682Z,72.30
2023-05-19T01:29:09.261Z,72.20
2023-05-19T01:31:38.784Z,72.70
2023-05-19T01:34:27.381Z,72.20
2023-05-19T01:37:07.249Z,72.10
2023-05-19T01:40:40.201Z,71.90
2023-05-19T01:43:48.930Z,71.40
2023-05-19T01:46:17.413Z,71.50
2023-05-19T01:48:45.649Z,71.70
2023-05-19T01:51:26.372Z,71.40
2023-05-19T01:53:54.182Z,70.70
2023-05-19T01:56:33.048Z,70.30
2023-05-19T01:59:04.603Z,70.70
2023-05-19T02:02:06.961Z,70.40
2023-05-19T02:04:46.807Z,70.20
2023-05-19T02:07:23.557Z,69.90
2023-05-19T02:09:51.140Z,69.70
2023-05-19T02:12:41.414Z,69.70
2023-05-19T02:15:25.294Z,69.90
2023-05-19T02:17:56.557Z,69.50
2023-05-19T02:20:27.155Z,69.60
2023-05-19T02:22:55.070Z,69.10
2023-05-19T02:25:23.829Z,69.10
2023-05-19T02:28:35.397Z,68.80
2023-05-19T02:31:05.560Z,68.10
2023-05-19T02:33:50.859Z,67.70
2023-05-19T02:36:26.981Z,66.50
2023-05-19T02:38:57.863Z,67.50
2023-05-19T02:41:50.106Z,67.60
2023-05-19T02:44:26.853Z,66.80
2023-05-19T02:46:58.428Z,67.00
2023-05-19T02:49:55.961Z,66.40
2023-05-19T02:52:23.686Z,65.90
2023-05-19T02:54:51.709Z,66.50
2023-05-19T02:57:19.340Z,66.60
2023-05-19T02:59:47.083Z,66.50
2023-05-19T03:02:14.833Z,66.20
2023-05-19T03:04:43.410Z,66.30
2023-05-19T03:07:11.138Z,66.30
2023-05-19T03:09:39.747Z,67.00
2023-05-19T03:12:08.738Z,67.00
2023-05-19T03:14:39.936Z,65.70
2023-05-19T03:17:11.042Z,66.40
2023-05-19T03:19:38.669Z,65.70
2023-05-19T03:22:07.638Z,65.80
2023-05-19T03:24:35.473Z,64.90
2023-05-19T03:27:03.348Z,66.00
2023-05-19T03:29:45.916Z,64.70
2023-05-19T03:32:13.689Z,65.20
2023-05-19T03:34:41.395Z,64.60
2023-05-19T03:37:10.961Z,63.70
2023-05-19T03:39:39.425Z,63.10
2023-05-19T03:42:09.040Z,63.30
2023-05-19T03:44:37.445Z,63.40
2023-05-19T03:47:05.369Z,63.60
2023-05-19T03:49:33.122Z,63.80
2023-05-19T03:52:03.522Z,64.00
2023-05-19T03:54:32.979Z,64.40
2023-05-19T03:57:01.488Z,64.30
2023-05-19T03:59:29.176Z,63.70
2023-05-19T04:01:58.138Z,63.10
2023-05-19T04:04:29.039Z,63.50
2023-05-19T04:07:00.092Z,63.80
2023-05-19T04:09:27.984Z,64.20
2023-05-19T04:11:55.973Z,62.20
2023-05-19T04:14:24.022Z,64.10
2023-05-19T04:19:37.419Z,63.10
2023-05-19T04:22:05.089Z,63.10
2023-05-19T04:24:33.898Z,62.70
2023-05-19T04:27:02.916Z,62.30
2023-05-19T04:29:30.631Z,63.00
2023-05-19T04:31:58.317Z,61.90
2023-05-19T04:34:25.974Z,63.30
2023-05-19T04:36:53.766Z,61.00
2023-05-19T04:39:21.960Z,60.90
2023-05-19T04:41:50.773Z,61.30
2023-05-19T04:44:19.373Z,60.50
2023-05-19T04:46:54.648Z,60.00
2023-05-19T04:49:22.794Z,60.60
2023-05-19T04:51:57.316Z,60.90
2023-05-19T04:54:25.537Z,59.80
2023-05-19T04:56:53.978Z,62.20
2023-05-19T04:59:23.411Z,62.10
2023-05-19T05:01:51.478Z,61.40
2023-05-19T05:04:19.211Z,62.00
2023-05-19T05:06:48.950Z,59.70
2023-05-19T05:09:32.682Z,60.20
2023-05-19T05:12:00.786Z,59.80
2023-05-19T05:14:31.907Z,59.20
2023-05-19T05:17:06.689Z,59.00
2023-05-19T05:19:34.714Z,61.60
2023-05-19T05:22:02.568Z,61.20
2023-05-19T05:24:35.968Z,59.70
2023-05-19T05:30:09.466Z,59.60
2023-05-19T05:32:37.348Z,60.40
2023-05-19T05:35:05.603Z,59.80
2023-05-19T05:37:36.923Z,60.20
2023-05-19T05:42:50.404Z,58.20
2023-05-19T05:45:18.164Z,58.20
2023-05-19T05:47:46.919Z,57.20
2023-05-19T05:50:15.518Z,56.80
2023-05-19T05:52:45.691Z,56.70
2023-05-19T06:03:23.089Z,57.40
2023-05-19T06:05:56.236Z,57.00
2023-05-19T06:08:24.342Z,57.00
2023-05-19T06:10:51.988Z,57.20
2023-05-19T06:13:23.694Z,59.00
2023-05-19T06:15:51.566Z,58.40
2023-05-19T06:18:19.547Z,56.60
2023-05-19T06:20:53.256Z,57.90
2023-05-19T06:23:21.120Z,57.80
2023-05-19T06:25:49.547Z,56.80
2023-05-19T06:28:17.472Z,58.20
2023-05-19T06:30:45.196Z,57.10
2023-05-19T06:33:12.823Z,55.20
2023-05-19T06:35:40.571Z,54.90
2023-05-19T06:40:42.403Z,58.80
2023-05-19T06:43:12.570Z,55.10
2023-05-19T06:45:41.334Z,56.40
2023-05-19T06:48:09.777Z,56.60
2023-05-19T06:50:40.327Z,54.20
2023-05-19T06:53:08.008Z,54.90
2023-05-19T06:55:41.333Z,56.10
2023-05-19T06:58:15.752Z,55.20
2023-05-19T07:00:43.674Z,53.40
2023-05-19T07:03:11.713Z,57.40
2023-05-19T07:05:41.104Z,57.10
2023-05-19T07:08:08.761Z,55.00
2023-05-19T07:10:36.856Z,54.40
2023-05-19T07:13:04.891Z,52.90
2023-05-19T07:15:32.831Z,53.30
2023-05-19T07:18:05.669Z,54.00
2023-05-19T07:20:33.784Z,54.70
2023-05-19T07:23:03.049Z,52.50
2023-05-19T07:25:30.866Z,55.00
2023-05-19T07:27:58.490Z,55.00
2023-05-19T07:30:29.288Z,54.50
2023-05-19T07:32:56.972Z,55.10
2023-05-19T07:35:24.918Z,54.70
2023-05-19T07:37:52.961Z,54.40
2023-05-19T07:40:20.598Z,54.10
2023-05-19T07:42:49.821Z,54.10
2023-05-19T07:45:18.388Z,51.20
2023-05-19T07:47:46.136Z,53.60
2023-05-19T07:50:14.085Z,55.10
2023-05-19T07:52:44.258Z,54.60
2023-05-19T07:55:13.077Z,55.60
2023-05-19T07:57:43.741Z,56.50
2023-05-19T08:00:13.878Z,55.10
2023-05-19T08:02:44.771Z,52.90
2023-05-19T08:05:12.515Z,54.70
2023-05-19T08:07:40.286Z,53.30
2023-05-19T08:10:09.002Z,54.10
2023-05-19T08:12:36.597Z,54.60
2023-05-19T08:15:05.833Z,53.10
2023-05-19T08:20:10.504Z,53.10
2023-05-19T08:22:38.423Z,53.50
2023-05-19T08:25:06.717Z,54.00
2023-05-19T08:27:34.648Z,56.10
2023-05-19T08:30:02.878Z,55.10
2023-05-19T08:32:30.632Z,55.30
2023-05-19T08:34:59.044Z,53.90
2023-05-19T08:37:26.737Z,53.60
2023-05-19T08:39:55.131Z,51.70
2023-05-19T08:42:22.892Z,53.60
2023-05-19T08:44:50.591Z,53.30
2023-05-19T08:47:19.148Z,53.20
2023-05-19T08:49:47.659Z,51.70
2023-05-19T08:52:15.279Z,54.30
2023-05-19T08:55:04.847Z,54.40
2023-05-19T08:57:33.252Z,53.30
2023-05-19T09:00:02.440Z,53.60
2023-05-19T09:02:30.410Z,52.80
2023-05-19T09:05:11.373Z,53.80
2023-05-19T09:07:40.243Z,53.60
2023-05-19T09:10:09.446Z,55.10
2023-05-19T09:12:37.544Z,54.50
2023-05-19T09:15:06.704Z,53.90
2023-05-19T09:17:34.664Z,54.20
2023-05-19T09:20:04.602Z,53.90
2023-05-19T09:22:36.634Z,52.20
2023-05-19T09:25:04.314Z,53.80
2023-05-19T09:27:38.110Z,53.70
2023-05-19T09:30:42.989Z,54.50
2023-05-19T09:35:52.271Z,53.40
2023-05-19T09:38:26.576Z,54.00
2023-05-19T09:40:57.389Z,55.70
2023-05-19T09:43:25.802Z,54.90
2023-05-19T09:46:03.041Z,54.80
2023-05-19T09:48:30.840Z,53.10
2023-05-19T09:50:59.239Z,53.00
2023-05-19T09:53:27.166Z,53.90
2023-05-19T09:58:36.940Z,54.90
2023-05-19T10:01:05.703Z,53.70
2023-05-19T10:03:35.402Z,54.10
2023-05-19T10:06:04.541Z,55.10
2023-05-19T10:08:34.911Z,55.40
2023-05-19T10:11:03.059Z,56.40
2023-05-19T10:13:35.129Z,55.00
2023-05-19T10:16:03.817Z,54.90
2023-05-19T10:32:11.597Z,55.80
2023-05-19T11:20:35.826Z,57.40
2023-05-19T11:23:18.696Z,57.40
2023-05-19T11:25:47.474Z,57.60
2023-05-19T11:28:19.798Z,57.90
2023-05-19T11:30:50.928Z,58.00
2023-05-19T11:33:21.820Z,58.10
2023-05-19T11:35:51.322Z,58.10
2023-05-19T11:38:19.740Z,58.20
2023-05-19T11:40:48.702Z,58.30
2023-05-19T11:43:16.999Z,58.20
2023-05-19T11:45:44.729Z,58.40
2023-05-19T11:48:14.012Z,58.50
2023-05-19T12:01:33.655Z,58.90
2023-05-19T12:04:02.348Z,59.00
2023-05-19T12:06:31.051Z,59.10
2023-05-19T12:08:59.491Z,59.10
2023-05-19T12:11:28.840Z,59.30
2023-05-19T12:13:59.354Z,59.30
2023-05-19T12:16:33.734Z,59.50
2023-05-19T12:19:02.594Z,59.50
2023-05-19T12:21:34.175Z,59.60
2023-05-19T12:24:03.398Z,59.80
2023-05-19T12:26:30.969Z,59.90
2023-05-19T12:28:59.125Z,60.30
2023-05-19T12:31:27.647Z,60.20
2023-05-19T12:33:56.205Z,60.40
2023-05-19T12:36:25.259Z,60.90
2023-05-19T12:38:57.064Z,60.80
2023-05-19T12:41:26.069Z,60.90
2023-05-19T12:43:54.859Z,61.10
2023-05-19T12:46:23.167Z,61.30
2023-05-19T12:48:52.140Z,61.40
2023-05-19T12:51:20.899Z,61.30
2023-05-19T12:53:51.510Z,61.40
2023-05-19T12:56:20.038Z,61.90
2023-05-19T12:58:48.836Z,61.80
2023-05-19T13:01:18.798Z,61.90
2023-05-19T13:03:47.443Z,61.90
2023-05-19T13:06:15.112Z,62.10
2023-05-19T13:08:42.790Z,62.30
2023-05-19T13:11:10.349Z,62.50
2023-05-19T13:13:38.794Z,62.70
2023-05-19T13:16:06.613Z,62.60
2023-05-19T13:18:36.462Z,63.10
2023-05-19T13:21:05.438Z,63.10
2023-05-19T13:23:33.905Z,63.10
2023-05-19T13:26:02.415Z,62.90
2023-05-19T13:28:30.468Z,62.90
2023-05-19T13:30:58.986Z,63.00
2023-05-19T13:33:27.431Z,62.80
2023-05-19T13:35:55.099Z,62.70
2023-05-19T13:38:23.508Z,62.60
2023-05-19T13:40:51.856Z,62.50
2023-05-19T13:43:20.263Z,62.30
2023-05-19T13:45:47.924Z,62.30
2023-05-19T13:48:16.694Z,62.10
2023-05-19T13:50:45.114Z,62.10
2023-05-19T13:53:12.703Z,62.00
2023-05-19T13:55:40.323Z,62.00
2023-05-19T13:58:11.886Z,61.80
2023-05-19T14:00:40.882Z,61.80
2023-05-19T14:03:08.675Z,61.80
2023-05-19T14:05:37.211Z,61.60
2023-05-19T14:08:05.847Z,61.60
2023-05-19T14:10:33.767Z,61.40
2023-05-19T14:15:38.634Z,61.30
2023-05-19T14:18:07.398Z,61.60
2023-05-19T14:20:36.170Z,61.70
2023-05-19T14:23:05.017Z,61.70
2023-05-19T14:25:32.638Z,61.70
2023-05-19T14:28:01.157Z,61.40
2023-05-19T14:30:30.058Z,61.50
2023-05-19T14:32:58.649Z,61.40
2023-05-19T14:35:27.676Z,61.60
2023-05-19T14:37:56.116Z,61.50
2023-05-19T14:40:23.730Z,61.70
2023-05-19T14:42:52.066Z,61.90
2023-05-19T14:45:19.715Z,61.90
2023-05-19T14:47:48.264Z,62.10
2023-05-19T14:50:15.896Z,62.10
2023-05-19T14:52:43.609Z,62.00
2023-05-19T14:55:11.316Z,62.10
2023-05-19T14:57:38.947Z,62.20
2023-05-19T15:00:06.963Z,62.20
2023-05-19T15:02:35.589Z,62.30
2023-05-19T15:05:03.363Z,62.20
2023-05-19T15:07:31.912Z,62.30
2023-05-19T15:09:59.647Z,62.40
2023-05-19T15:12:28.014Z,62.50
2023-05-19T15:14:55.654Z,62.50
2023-05-19T15:17:24.091Z,62.50
2023-05-19T15:19:51.798Z,62.50
2023-05-19T15:22:20.270Z,62.50
2023-05-19T15:24:48.689Z,62.50
2023-05-19T15:27:17.267Z,62.60
2023-05-19T15:29:44.808Z,62.70
2023-05-19T15:32:12.377Z,62.80
2023-05-19T15:34:40.464Z,62.80
2023-05-19T15:37:08.932Z,62.90
2023-05-19T15:39:36.629Z,62.90
2023-05-19T15:42:04.226Z,62.90
2023-05-19T15:44:32.650Z,63.20
2023-05-19T15:47:00.441Z,63.30
2023-05-19T15:49:28.090Z,63.20
2023-05-19T15:51:55.684Z,63.40
2023-05-19T15:54:23.300Z,63.30
2023-05-19T15:56:50.938Z,63.50
2023-05-19T15:59:18.658Z,63.60
2023-05-19T16:01:47.349Z,64.10
2023-05-19T16:04:15.859Z,63.90
2023-05-19T16:06:44.405Z,63.80
2023-05-19T16:09:12.853Z,64.10
2023-05-19T16:11:41.201Z,64.30
2023-05-19T16:14:08.815Z,64.60
2023-05-19T16:16:36.460Z,64.60
2023-05-19T16:19:04.935Z,65.70
2023-05-19T16:21:33.659Z,64.80
2023-05-19T16:24:01.327Z,64.70
2023-05-19T16:26:30.059Z,65.20
2023-05-19T16:28:58.438Z,64.90
2023-05-19T16:31:26.263Z,65.00
2023-05-19T16:33:54.718Z,65.90
2023-05-19T16:36:23.852Z,65.40
2023-05-19T16:38:52.426Z,65.10
2023-05-19T16:41:20.007Z,65.20
2023-05-19T16:43:47.668Z,65.40
2023-05-19T16:46:16.261Z,65.40
2023-05-19T16:48:43.933Z,65.80
2023-05-19T16:51:11.542Z,65.90
2023-05-19T16:53:40.105Z,65.60
2023-05-19T16:56:10.260Z,65.70
2023-05-19T16:58:38.661Z,66.10
2023-05-19T17:01:08.011Z,65.80
2023-05-19T17:03:36.202Z,66.80
2023-05-19T17:06:04.144Z,66.10
2023-05-19T17:08:31.791Z,66.20
2023-05-19T17:11:00.213Z,67.00
2023-05-19T17:13:30.635Z,66.70
2023-05-19T17:15:58.990Z,66.70
2023-05-19T17:18:27.750Z,66.60
2023-05-19T17:20:56.568Z,67.10
2023-05-19T17:23:24.156Z,66.70
2023-05-19T17:25:54.451Z,67.60
2023-05-19T17:28:22.856Z,66.70
2023-05-19T17:30:51.254Z,66.80
2023-05-19T17:33:19.069Z,67.10
2023-05-19T17:35:47.635Z,66.70
2023-05-19T17:38:16.103Z,67.20
2023-05-19T17:40:44.559Z,67.70
2023-05-19T17:43:12.965Z,67.90
2023-05-19T17:45:40.551Z,68.60
2023-05-19T17:48:09.011Z,68.80
2023-05-19T17:50:37.449Z,69.10
2023-05-19T17:53:05.930Z,69.10
2023-05-19T17:55:33.974Z,68.20
2023-05-19T17:58:01.744Z,68.00
2023-05-19T18:00:30.316Z,67.60
2023-05-19T18:02:59.231Z,68.10
2023-05-19T18:05:27.344Z,68.40
2023-05-19T18:07:57.493Z,67.70
2023-05-19T18:10:26.375Z,68.20
2023-05-19T18:12:53.986Z,69.10
2023-05-19T18:15:22.764Z,69.30
2023-05-19T18:17:50.348Z,68.80
2023-05-19T18:20:18.137Z,68.00
2023-05-19T18:22:49.299Z,68.40
2023-05-19T18:25:19.613Z,68.90
2023-05-19T18:27:48.565Z,69.60
2023-05-19T18:30:17.091Z,68.50
2023-05-19T18:32:45.583Z,69.50
2023-05-19T18:35:13.529Z,69.40
2023-05-19T18:37:42.054Z,69.20
2023-05-19T18:40:10.673Z,69.20
2023-05-19T18:42:38.362Z,69.70
2023-05-19T18:45:06.726Z,69.40
2023-05-19T18:47:34.482Z,69.00
2023-05-19T18:50:02.176Z,68.80
2023-05-19T18:52:32.411Z,68.60
2023-05-19T18:55:01.476Z,68.90
2023-05-19T18:57:29.107Z,69.30
2023-05-19T18:59:57.489Z,68.90
2023-05-19T19:02:25.970Z,69.20
2023-05-19T19:04:53.705Z,69.20
2023-05-19T19:07:22.225Z,70.20
2023-05-19T19:09:50.617Z,70.60
2023-05-19T19:12:19.595Z,72.30
2023-05-19T19:14:48.821Z,70.90
2023-05-19T19:17:16.560Z,70.50
2023-05-19T19:19:45.204Z,71.10
2023-05-19T19:22:12.792Z,71.20
2023-05-19T19:24:43.328Z,71.90
2023-05-19T19:27:11.966Z,71.40
2023-05-19T19:29:39.939Z,71.00
2023-05-19T19:32:07.740Z,70.10
2023-05-19T19:34:36.325Z,71.00
2023-05-19T19:37:04.509Z,70.90
2023-05-19T19:39:33.149Z,70.30
2023-05-19T19:42:00.757Z,71.30
2023-05-19T19:44:29.239Z,71.30
2023-05-19T19:46:57.549Z,72.00
2023-05-19T19:49:26.446Z,72.00
2023-05-19T19:51:54.948Z,71.80
2023-05-19T19:54:22.580Z,71.30
2023-05-19T19:56:51.041Z,72.80
2023-05-19T19:59:18.983Z,72.40
2023-05-19T20:01:47.416Z,73.30
2023-05-19T20:04:16.358Z,72.80
2023-05-19T20:06:44.965Z,72.50
2023-05-19T20:09:13.473Z,72.50
2023-05-19T20:11:41.103Z,73.20
2023-05-19T20:14:09.492Z,72.80
2023-05-19T20:16:37.778Z,72.80
2023-05-19T20:19:06.937Z,72.50
2023-05-19T20:21:36.727Z,73.40
2023-05-19T20:24:04.456Z,73.20
2023-05-19T20:26:33.021Z,73.00
2023-05-19T20:29:01.840Z,73.50
2023-05-19T20:31:30.324Z,74.40
2023-05-19T20:33:59.286Z,74.80
2023-05-19T20:36:28.635Z,74.70
2023-05-19T20:38:57.040Z,74.80
2023-05-19T20:41:24.652Z,75.00
2023-05-19T20:43:53.357Z,74.90
2023-05-19T20:46:21.170Z,74.40
2023-05-19T20:48:48.989Z,73.70
2023-05-19T20:51:16.630Z,73.80
2023-05-19T20:53:44.291Z,74.50
2023-05-19T20:56:12.017Z,73.60
2023-05-19T20:58:39.930Z,72.80
2023-05-19T21:01:08.550Z,72.60
2023-05-19T21:03:36.247Z,72.50
2023-05-19T21:06:03.947Z,72.90
2023-05-19T21:08:32.448Z,73.70
2023-05-19T21:11:01.940Z,74.00
2023-05-19T21:13:36.989Z,74.40
2023-05-19T21:16:05.587Z,73.80
2023-05-19T21:18:35.129Z,72.20
2023-05-19T21:21:04.970Z,72.20
2023-05-19T21:23:32.554Z,71.80
2023-05-19T21:26:01.296Z,71.90
2023-05-19T21:28:28.905Z,72.60
2023-05-19T21:30:57.388Z,71.60
2023-05-19T21:33:25.047Z,72.10
2023-05-19T21:35:53.025Z,71.70
2023-05-19T21:38:24.009Z,72.60
2023-05-19T21:40:53.293Z,71.80
2023-05-19T21:43:22.933Z,72.50
2023-05-19T21:45:50.565Z,72.90
2023-05-19T21:48:18.422Z,72.60
2023-05-19T21:50:46.988Z,74.10
2023-05-19T21:53:14.593Z,73.80
2023-05-19T21:55:42.187Z,73.50
2023-05-19T21:58:10.729Z,74.00
2023-05-19T22:00:39.981Z,73.90
2023-05-19T22:03:08.673Z,75.10
2023-05-19T22:05:39.130Z,75.50
2023-05-19T22:08:06.899Z,74.50
2023-05-19T22:10:35.992Z,75.50
2023-05-19T22:13:04.544Z,75.20
2023-05-19T22:15:32.146Z,74.50
2023-05-19T22:18:00.652Z,75.00
2023-05-19T22:20:28.591Z,74.60
2023-05-19T22:22:57.616Z,75.30
2023-05-19T22:25:25.602Z,75.30
2023-05-19T22:27:54.014Z,73.60
2023-05-19T22:30:22.785Z,75.00
2023-05-19T22:32:50.503Z,75.80
2023-05-19T22:35:20.016Z,76.10
2023-05-19T22:37:47.592Z,75.10
2023-05-19T22:40:15.223Z,76.10
2023-05-19T22:42:42.851Z,77.20
2023-05-19T22:45:11.551Z,77.40
2023-05-19T22:47:39.935Z,77.00
2023-05-19T22:50:12.922Z,77.20
2023-05-19T22:52:41.176Z,76.00
2023-05-19T22:55:09.794Z,76.70
2023-05-19T22:57:37.522Z,75.30
2023-05-19T23:00:05.476Z,74.10
2023-05-19T23:02:33.528Z,74.60
2023-05-19T23:05:01.495Z,74.20
2023-05-19T23:07:29.190Z,74.80
2023-05-19T23:09:56.900Z,75.30
2023-05-19T23:12:24.670Z,73.50
2023-05-19T23:14:53.285Z,74.50
2023-05-19T23:17:20.970Z,74.90
2023-05-19T23:19:49.996Z,75.00
2023-05-19T23:22:17.747Z,74.10
2023-05-19T23:24:45.480Z,73.70
2023-05-19T23:27:13.195Z,75.20
2023-05-19T23:29:41.025Z,75.90
2023-05-19T23:32:09.688Z,75.80
2023-05-19T23:34:37.431Z,75.40
2023-05-19T23:37:05.238Z,76.20
2023-05-19T23:39:32.930Z,75.40
2023-05-19T23:42:01.519Z,75.90
2023-05-19T23:44:30.069Z,75.80
2023-05-19T23:46:58.781Z,75.30
2023-05-19T23:49:27.409Z,76.00
2023-05-19T23:51:55.434Z,75.60
2023-05-19T23:54:23.276Z,75.70
2023-05-19T23:56:51.221Z,76.40
2023-05-19T23:59:19.805Z,76.60
